Time;durP1;ratioP1;P1;durP2;ratioP2;P2;SDS_P1;SDS_P2;PMS_P1;PMS_P2;Temp;Humidity;BMP_temperature;BMP_pressure;BME280_temperature;BME280_humidity;BME280_pressure;Samples;Min_cycle;Max_cycle;Signal;HPM_P1;HPM_P2
2022/10/02 00:26:00;;;;;;;9.70;8.05;;;;;;;;;;13091785;22;20373;-96
2022/10/02 01:07:03;;;;;;;9.48;7.30;;;;;;;;;;12942929;22;20384;-96
2022/10/02 01:12:22;;;;;;;8.57;6.90;;;;;;;;;;12945055;23;20419;-96
2022/10/02 01:17:39;;;;;;;7.63;6.83;;;;;;;;;;12947644;22;20396;-96
2022/10/02 01:45:39;;;;;;;7.75;6.10;;;;;;;;;;12951565;22;20380;-96
2022/10/02 01:51:08;;;;;;;8.07;6.35;;;;;;;;;;12957841;22;20380;-96
2022/10/02 02:08:11;;;;;;;8.30;6.47;;;;;;;;;;13025896;22;20466;-96
2022/10/02 02:19:03;;;;;;;8.38;6.35;;;;;;;;;;13023867;22;20712;-96
2022/10/02 02:36:26;;;;;;;7.65;5.70;;;;;;;;;;13025686;22;20396;-96
2022/10/02 03:00:16;;;;;;;6.87;5.47;;;;;;;;;;13069850;22;20444;-96
2022/10/02 03:16:41;;;;;;;6.93;5.65;;;;;;;;;;13085128;22;20385;-96
2022/10/02 03:27:42;;;;;;;8.50;6.20;;;;;;;;;;13060319;22;20384;-96
2022/10/02 03:38:29;;;;;;;7.78;6.50;;;;;;;;;;13072049;22;20400;-96
2022/10/02 03:49:07;;;;;;;7.60;6.50;;;;;;;;;;13080182;22;20373;-96
2022/10/02 03:54:58;;;;;;;8.30;5.82;;;;;;;;;;13053910;22;20372;-96
2022/10/02 06:10:33;;;;;;;8.47;4.80;;;;;;;;;;12876696;22;20672;-96
2022/10/02 06:15:59;;;;;;;6.43;4.88;;;;;;;;;;13086089;22;20370;-96
2022/10/02 06:21:14;;;;;;;8.10;5.30;;;;;;;;;;13185362;22;20365;-96
2022/10/02 06:26:37;;;;;;;5.57;4.88;;;;;;;;;;13209603;22;20404;-96
2022/10/02 06:32:17;;;;;;;6.22;5.00;;;;;;;;;;13213399;22;20392;-96
2022/10/02 06:43:57;;;;;;;5.63;4.50;;;;;;;;;;13210274;22;20353;-96
2022/10/02 07:23:56;;;;;;;5.45;4.60;;;;;;;;;;13000692;22;20371;-96
2022/10/02 07:29:11;;;;;;;6.68;4.78;;;;;;;;;;12997028;22;20378;-96
2022/10/02 07:40:00;;;;;;;4.78;4.28;;;;;;;;;;13059248;22;20392;-96
2022/10/02 07:45:32;;;;;;;8.82;4.47;;;;;;;;;;13044752;22;20833;-96
2022/10/02 07:50:58;;;;;;;5.63;4.43;;;;;;;;;;13046389;22;20685;-96
2022/10/02 07:56:10;;;;;;;6.65;4.80;;;;;;;;;;13085491;22;20663;-96
2022/10/02 08:01:28;;;;;;;5.57;4.97;;;;;;;;;;13064264;22;20384;-96
2022/10/02 08:06:35;;;;;;;8.30;5.47;;;;;;;;;;13044289;22;20381;-96
2022/10/02 08:11:43;;;;;;;6.32;5.30;;;;;;;;;;13042470;22;20365;-96
2022/10/02 08:16:50;;;;;;;5.43;4.57;;;;;;;;;;13044056;22;20436;-94
2022/10/02 08:22:00;;;;;;;5.82;4.60;;;;;;;;;;13044374;22;20370;-94
2022/10/02 08:27:07;;;;;;;6.50;4.80;;;;;;;;;;13046671;22;20413;-96
2022/10/02 08:32:14;;;;;;;5.22;4.60;;;;;;;;;;13041948;22;20360;-96
2022/10/02 08:37:30;;;;;;;5.20;4.68;;;;;;;;;;13044651;22;20369;-96
2022/10/02 08:43:23;;;;;;;4.57;4.15;;;;;;;;;;13047396;22;20878;-96
2022/10/02 08:48:57;;;;;;;5.23;4.40;;;;;;;;;;13051354;22;20445;-96
2022/10/02 08:54:48;;;;;;;5.43;3.92;;;;;;;;;;13047506;22;20450;-96
2022/10/02 09:00:09;;;;;;;6.80;4.78;;;;;;;;;;12908508;22;20381;-96
2022/10/02 09:05:50;;;;;;;5.25;4.70;;;;;;;;;;13053554;22;20361;-96
2022/10/02 09:11:35;;;;;;;7.57;5.30;;;;;;;;;;13049756;22;20484;-96
2022/10/02 09:22:43;;;;;;;6.97;5.22;;;;;;;;;;13063225;22;20436;-96
2022/10/02 09:28:32;;;;;;;7.23;5.57;;;;;;;;;;13039123;22;21069;-96
2022/10/02 09:40:15;;;;;;;8.47;6.53;;;;;;;;;;12947335;22;20399;-95
2022/10/02 09:46:05;;;;;;;7.87;6.20;;;;;;;;;;13044701;22;20479;-96
2022/10/02 09:51:40;;;;;;;10.20;6.72;;;;;;;;;;13054847;22;20419;-87
2022/10/02 09:57:30;;;;;;;11.43;6.43;;;;;;;;;;13037286;22;20364;-93
2022/10/02 10:03:35;;;;;;;9.82;6.50;;;;;;;;;;13037903;22;20372;-91
2022/10/02 10:09:03;;;;;;;7.83;6.47;;;;;;;;;;13026940;22;20377;-93
2022/10/02 10:14:50;;;;;;;10.70;7.35;;;;;;;;;;13030331;22;20391;-93
2022/10/02 10:20:24;;;;;;;11.75;7.45;;;;;;;;;;13031990;22;20368;-91
2022/10/02 10:25:57;;;;;;;10.98;7.68;;;;;;;;;;13032444;22;20372;-92
2022/10/02 10:31:38;;;;;;;11.95;7.53;;;;;;;;;;13032060;22;20375;-91
2022/10/02 10:42:49;;;;;;;9.60;7.03;;;;;;;;;;12980204;22;20361;-92
2022/10/02 10:48:33;;;;;;;6.67;5.10;;;;;;;;;;13033132;22;20384;-92
2022/10/02 10:53:59;;;;;;;7.57;5.50;;;;;;;;;;13034498;22;20360;-92
2022/10/02 10:59:30;;;;;;;7.68;5.55;;;;;;;;;;13048139;22;20357;-91
2022/10/02 11:04:52;;;;;;;7.82;6.35;;;;;;;;;;13076990;22;20376;-91
2022/10/02 11:10:19;;;;;;;9.57;6.50;;;;;;;;;;13032932;22;20434;-93
2022/10/02 11:15:43;;;;;;;6.88;5.90;;;;;;;;;;13031492;22;20876;-91
2022/10/02 11:21:10;;;;;;;8.30;6.23;;;;;;;;;;13030703;22;20537;-94
2022/10/02 11:26:40;;;;;;;7.00;5.22;;;;;;;;;;13030319;22;20440;-92
2022/10/02 11:32:08;;;;;;;8.13;5.53;;;;;;;;;;13027534;22;20422;-93
2022/10/02 11:37:25;;;;;;;8.75;5.40;;;;;;;;;;13030733;22;20448;-92
2022/10/02 11:42:56;;;;;;;8.43;5.72;;;;;;;;;;13030254;22;20403;-93
2022/10/02 11:48:23;;;;;;;8.50;5.70;;;;;;;;;;13017284;22;20438;-93
2022/10/02 11:54:00;;;;;;;7.28;5.07;;;;;;;;;;13030215;22;20373;-92
2022/10/02 11:59:25;;;;;;;4.93;4.43;;;;;;;;;;13030363;22;20399;-93
2022/10/02 12:04:39;;;;;;;5.60;4.50;;;;;;;;;;13029955;22;20361;-91
2022/10/02 12:09:54;;;;;;;6.50;4.80;;;;;;;;;;13036854;22;20372;-93
2022/10/02 12:15:02;;;;;;;5.80;4.80;;;;;;;;;;13038069;22;20422;-92
2022/10/02 12:31:14;;;;;;;5.20;3.92;;;;;;;;;;13041098;22;20345;-93
2022/10/02 12:36:38;;;;;;;5.53;3.70;;;;;;;;;;13047294;22;20749;-91
2022/10/02 12:42:02;;;;;;;4.95;3.90;;;;;;;;;;13041945;22;20376;-93
2022/10/02 12:47:42;;;;;;;3.75;3.25;;;;;;;;;;13038428;22;20384;-93
2022/10/02 12:53:16;;;;;;;4.43;3.40;;;;;;;;;;13038442;22;20373;-93
2022/10/02 12:58:25;;;;;;;2.97;2.63;;;;;;;;;;13026795;22;20366;-93
2022/10/02 13:04:09;;;;;;;3.15;2.80;;;;;;;;;;13038877;22;20357;-93
2022/10/02 13:09:32;;;;;;;3.33;2.72;;;;;;;;;;13037158;22;20380;-93
2022/10/02 13:14:52;;;;;;;3.38;2.78;;;;;;;;;;13037462;22;20368;-94
2022/10/02 13:20:03;;;;;;;3.88;2.72;;;;;;;;;;13038415;22;20423;-93
2022/10/02 13:25:41;;;;;;;3.75;2.45;;;;;;;;;;13037714;22;20871;-94
2022/10/02 13:30:51;;;;;;;4.25;3.10;;;;;;;;;;12972422;22;20841;-93
2022/10/02 13:36:08;;;;;;;4.05;2.80;;;;;;;;;;13036877;22;20365;-93
2022/10/02 13:41:26;;;;;;;3.70;2.90;;;;;;;;;;13035965;22;20713;-93
2022/10/02 13:46:45;;;;;;;3.88;2.72;;;;;;;;;;13036488;22;20412;-92
2022/10/02 13:51:56;;;;;;;3.50;3.10;;;;;;;;;;13035556;22;20372;-92
2022/10/02 13:57:08;;;;;;;4.57;3.20;;;;;;;;;;13035770;22;20375;-93
2022/10/02 14:02:25;;;;;;;4.10;3.30;;;;;;;;;;13034718;22;20365;-93
2022/10/02 14:07:46;;;;;;;3.63;3.30;;;;;;;;;;13034368;22;20706;-93
2022/10/02 14:13:04;;;;;;;3.50;3.17;;;;;;;;;;13035171;22;20357;-93
2022/10/02 14:18:26;;;;;;;3.50;3.20;;;;;;;;;;13036130;22;20761;-92
2022/10/02 14:23:57;;;;;;;3.47;3.17;;;;;;;;;;13036026;22;20373;-93
2022/10/02 14:29:37;;;;;;;5.63;3.08;;;;;;;;;;13036323;22;20439;-93
2022/10/02 14:35:00;;;;;;;4.30;3.08;;;;;;;;;;13016623;22;20357;-93
2022/10/02 14:40:12;;;;;;;4.07;3.40;;;;;;;;;;13035292;22;20379;-92
2022/10/02 14:45:55;;;;;;;3.72;3.10;;;;;;;;;;13035590;22;20361;-92
2022/10/02 14:51:19;;;;;;;4.80;3.58;;;;;;;;;;13033385;22;20467;-93
2022/10/02 14:56:52;;;;;;;4.80;3.23;;;;;;;;;;13036327;22;20372;-93
2022/10/02 15:02:09;;;;;;;3.40;3.10;;;;;;;;;;13039438;22;20950;-93
2022/10/02 15:07:15;;;;;;;2.83;2.53;;;;;;;;;;13040020;22;20372;-92
2022/10/02 15:12:21;;;;;;;3.63;2.90;;;;;;;;;;13038413;22;20369;-93
2022/10/02 15:17:56;;;;;;;3.33;3.03;;;;;;;;;;13039299;22;20769;-93
2022/10/02 15:23:02;;;;;;;4.97;3.10;;;;;;;;;;13036563;22;20406;-93
2022/10/02 15:28:13;;;;;;;3.07;2.70;;;;;;;;;;13036081;22;20381;-93
2022/10/02 15:33:23;;;;;;;3.58;3.03;;;;;;;;;;13036450;22;20365;-93
2022/10/02 15:38:47;;;;;;;3.45;3.00;;;;;;;;;;13038594;22;20373;-92
2022/10/02 15:44:05;;;;;;;3.20;2.88;;;;;;;;;;13031053;22;20369;-87
2022/10/02 15:49:15;;;;;;;127.68;11.35;;;;;;;;;;13032264;22;20380;-90
2022/10/02 15:54:31;;;;;;;21.67;3.88;;;;;;;;;;13032137;22;20422;-88
2022/10/02 15:59:52;;;;;;;125.93;12.05;;;;;;;;;;13029583;22;20593;-87
2022/10/02 16:05:09;;;;;;;6.13;3.33;;;;;;;;;;13034620;22;20387;-95
2022/10/02 16:10:24;;;;;;;4.20;2.87;;;;;;;;;;13039246;22;20408;-92
2022/10/02 16:15:31;;;;;;;3.10;2.80;;;;;;;;;;13040784;22;20709;-96
2022/10/02 16:21:05;;;;;;;3.35;2.92;;;;;;;;;;13037285;22;20426;-92
2022/10/02 16:26:21;;;;;;;5.20;3.70;;;;;;;;;;12775453;23;20367;-93
2022/10/02 16:31:38;;;;;;;6.35;4.25;;;;;;;;;;13030766;22;20744;-92
2022/10/02 16:36:50;;;;;;;6.70;5.25;;;;;;;;;;13032896;22;20377;-91
2022/10/02 16:42:01;;;;;;;8.82;5.78;;;;;;;;;;13034984;22;20446;-93
2022/10/02 16:47:11;;;;;;;5.97;4.70;;;;;;;;;;13038622;22;20377;-95
2022/10/02 16:52:21;;;;;;;5.10;4.60;;;;;;;;;;13037056;22;20457;-94
2022/10/02 16:57:48;;;;;;;5.23;4.73;;;;;;;;;;13042738;22;20380;-95
2022/10/02 17:02:58;;;;;;;6.17;4.53;;;;;;;;;;13046365;22;20383;-95
2022/10/02 17:08:07;;;;;;;5.75;4.72;;;;;;;;;;13042585;22;20435;-94
2022/10/02 17:13:25;;;;;;;5.65;4.95;;;;;;;;;;13042744;22;20395;-94
2022/10/02 17:18:37;;;;;;;6.50;5.70;;;;;;;;;;13039219;22;20404;-94
2022/10/02 17:23:47;;;;;;;9.18;6.22;;;;;;;;;;13040524;22;20426;-94
2022/10/02 17:28:59;;;;;;;9.57;6.70;;;;;;;;;;13040889;22;20384;-95
2022/10/02 17:34:18;;;;;;;10.35;8.00;;;;;;;;;;13040473;22;20476;-93
2022/10/02 17:39:39;;;;;;;9.32;8.10;;;;;;;;;;13039058;22;20372;-95
2022/10/02 17:44:53;;;;;;;9.65;8.65;;;;;;;;;;13010630;22;20372;-95
2022/10/02 17:50:15;;;;;;;10.30;8.90;;;;;;;;;;13031274;22;20384;-95
2022/10/02 18:01:09;;;;;;;11.45;9.55;;;;;;;;;;13033253;22;20376;-91
2022/10/02 18:06:22;;;;;;;11.50;9.15;;;;;;;;;;13033675;22;20380;-94
2022/10/02 18:11:38;;;;;;;11.55;9.30;;;;;;;;;;13037023;22;20381;-93
2022/10/02 18:16:55;;;;;;;13.88;10.30;;;;;;;;;;13036456;22;20373;-95
2022/10/02 18:22:16;;;;;;;13.25;11.45;;;;;;;;;;13035180;22;21186;-94
2022/10/02 18:27:39;;;;;;;12.82;11.18;;;;;;;;;;13036808;22;20372;-95
2022/10/02 18:33:06;;;;;;;13.53;10.50;;;;;;;;;;13037250;22;20377;-91
2022/10/02 18:38:21;;;;;;;12.63;10.10;;;;;;;;;;13014983;22;20506;-94
2022/10/02 18:43:46;;;;;;;12.93;10.57;;;;;;;;;;13033000;22;20392;-93
2022/10/02 18:49:25;;;;;;;12.53;10.30;;;;;;;;;;13031433;22;20391;-94
2022/10/02 18:54:41;;;;;;;12.27;10.50;;;;;;;;;;13032746;22;20378;-94
2022/10/02 18:59:55;;;;;;;12.10;10.33;;;;;;;;;;13037412;22;20377;-93
2022/10/02 19:05:28;;;;;;;12.77;10.10;;;;;;;;;;13036211;22;20713;-93
2022/10/02 19:10:43;;;;;;;11.85;10.00;;;;;;;;;;13017924;22;20381;-95
2022/10/02 19:15:47;;;;;;;14.52;10.63;;;;;;;;;;13036617;22;20380;-94
2022/10/02 19:21:05;;;;;;;10.63;9.47;;;;;;;;;;13034633;22;20368;-92
2022/10/02 19:26:17;;;;;;;12.90;10.77;;;;;;;;;;13033804;22;20423;-92
2022/10/02 19:31:22;;;;;;;12.02;10.57;;;;;;;;;;13035437;22;20373;-91
2022/10/02 19:36:28;;;;;;;12.77;11.13;;;;;;;;;;13035337;22;20384;-93
2022/10/02 19:41:43;;;;;;;12.27;10.75;;;;;;;;;;13035969;22;20380;-93
2022/10/02 19:46:48;;;;;;;13.55;11.10;;;;;;;;;;13035948;22;20376;-94
2022/10/02 19:51:53;;;;;;;14.15;12.45;;;;;;;;;;13036398;22;20381;-91
2022/10/02 19:57:22;;;;;;;13.43;11.75;;;;;;;;;;13036023;22;20863;-94
2022/10/02 20:08:29;;;;;;;13.90;12.07;;;;;;;;;;13003566;22;20373;-92
2022/10/02 20:13:36;;;;;;;14.48;11.93;;;;;;;;;;13030240;22;20744;-94
2022/10/02 20:18:49;;;;;;;15.43;12.60;;;;;;;;;;13030241;22;20388;-95
2022/10/02 20:23:56;;;;;;;14.13;12.40;;;;;;;;;;13029716;22;20400;-93
2022/10/02 20:29:02;;;;;;;13.23;11.82;;;;;;;;;;13032069;22;20385;-93
2022/10/02 20:34:11;;;;;;;15.00;13.02;;;;;;;;;;13035330;22;20377;-91
2022/10/02 20:39:18;;;;;;;16.02;12.20;;;;;;;;;;13032189;22;20372;-90
2022/10/02 20:44:21;;;;;;;14.50;12.57;;;;;;;;;;13030237;22;20365;-87
2022/10/02 20:49:44;;;;;;;16.00;12.60;;;;;;;;;;13029604;22;20495;-89
2022/10/02 20:54:56;;;;;;;15.23;13.05;;;;;;;;;;13029372;22;20415;-89
2022/10/02 21:00:14;;;;;;;14.53;12.37;;;;;;;;;;13029473;22;20372;-88
2022/10/02 21:06:01;;;;;;;14.15;12.63;;;;;;;;;;13024190;22;20467;-90
2022/10/02 21:11:29;;;;;;;15.10;13.50;;;;;;;;;;12883197;22;20380;-90
2022/10/02 21:17:11;;;;;;;16.00;13.93;;;;;;;;;;13029071;22;20385;-89
2022/10/02 21:22:44;;;;;;;17.60;14.60;;;;;;;;;;13029703;22;20448;-89
2022/10/02 21:28:37;;;;;;;16.23;13.57;;;;;;;;;;13028961;22;20364;-89
2022/10/02 21:33:41;;;;;;;17.95;14.10;;;;;;;;;;13002606;22;20845;-88
2022/10/02 21:39:23;;;;;;;15.18;13.48;;;;;;;;;;13028362;22;20388;-88
2022/10/02 21:45:06;;;;;;;16.53;14.10;;;;;;;;;;13029411;22;20412;-88
2022/10/02 21:50:45;;;;;;;17.63;14.68;;;;;;;;;;13030905;22;20409;-88
2022/10/02 21:56:26;;;;;;;15.95;14.25;;;;;;;;;;13026028;22;20404;-89
2022/10/02 22:02:01;;;;;;;21.20;16.83;;;;;;;;;;13028065;22;20721;-87
2022/10/02 22:07:09;;;;;;;19.75;17.25;;;;;;;;;;13032303;22;20364;-88
2022/10/02 22:12:38;;;;;;;20.83;18.02;;;;;;;;;;13032740;22;20384;-86
2022/10/02 22:17:55;;;;;;;20.03;17.90;;;;;;;;;;13032601;22;20446;-88
2022/10/02 22:23:13;;;;;;;20.88;17.38;;;;;;;;;;13032690;22;20383;-89
2022/10/02 22:28:30;;;;;;;18.98;16.85;;;;;;;;;;13031558;22;20412;-87
2022/10/02 22:33:53;;;;;;;20.70;16.30;;;;;;;;;;13031216;22;20696;-88
2022/10/02 22:39:06;;;;;;;19.17;16.92;;;;;;;;;;13031035;22;20373;-88
2022/10/02 22:44:19;;;;;;;21.55;17.13;;;;;;;;;;13030868;22;20357;-89
2022/10/02 22:49:29;;;;;;;24.58;18.92;;;;;;;;;;13030975;22;20377;-90
2022/10/02 22:54:44;;;;;;;26.20;19.88;;;;;;;;;;13029542;22;20401;-88
2022/10/02 22:59:52;;;;;;;25.63;19.45;;;;;;;;;;13032238;22;20434;-88
2022/10/02 23:05:04;;;;;;;25.33;19.60;;;;;;;;;;13033218;22;20374;-89
2022/10/02 23:10:19;;;;;;;28.55;20.90;;;;;;;;;;13031469;22;20380;-88
2022/10/02 23:15:34;;;;;;;27.63;20.88;;;;;;;;;;13031432;22;20364;-88
2022/10/02 23:20:40;;;;;;;26.55;20.20;;;;;;;;;;13031320;22;20455;-88
2022/10/02 23:25:50;;;;;;;24.70;19.83;;;;;;;;;;13029739;22;20430;-90
2022/10/02 23:31:08;;;;;;;26.40;19.90;;;;;;;;;;13030552;22;20376;-88
2022/10/02 23:36:23;;;;;;;27.92;20.95;;;;;;;;;;13030147;22;20357;-87
2022/10/02 23:41:38;;;;;;;30.08;20.65;;;;;;;;;;13030946;22;20456;-90
2022/10/02 23:46:58;;;;;;;28.17;21.27;;;;;;;;;;13030276;22;20364;-90
2022/10/02 23:52:14;;;;;;;29.17;21.80;;;;;;;;;;13028531;22;20384;-89
2022/10/02 23:57:46;;;;;;;30.83;21.97;;;;;;;;;;13002851;22;20411;-88
